Time;durP1;ratioP1;P1;durP2;ratioP2;P2;SDS_P1;SDS_P2;PMS_P1;PMS_P2;Temp;Humidity;BMP_temperature;BMP_pressure;BME280_temperature;BME280_humidity;BME280_pressure;Samples;Min_cycle;Max_cycle;Signal;HPM_P1;HPM_P2
2021/05/24 00:00:10;;;;;;;1.80;1.07;;;13.70;99.90;;;;;;5028825;28;20970;-77
2021/05/24 00:02:38;;;;;;;1.33;1.00;;;13.60;99.90;;;;;;5023765;28;20521;-78
2021/05/24 00:05:08;;;;;;;2.87;1.27;;;13.60;99.90;;;;;;5031368;28;20459;-77
2021/05/24 00:07:36;;;;;;;1.87;1.33;;;13.50;99.90;;;;;;5033560;28;20844;-77
2021/05/24 00:10:05;;;;;;;1.47;1.03;;;13.50;99.90;;;;;;5032089;28;20454;-77
2021/05/24 00:12:33;;;;;;;1.13;1.03;;;13.40;99.90;;;;;;5031993;28;20468;-78
2021/05/24 00:15:01;;;;;;;1.27;1.07;;;13.30;99.90;;;;;;5015783;28;20463;-77
2021/05/24 00:17:30;;;;;;;1.20;1.07;;;13.30;99.90;;;;;;5023036;28;20459;-77
2021/05/24 00:19:58;;;;;;;1.23;1.13;;;13.30;99.90;;;;;;5032220;28;20452;-78
2021/05/24 00:22:25;;;;;;;1.60;1.23;;;13.20;99.90;;;;;;5022357;28;20954;-78
2021/05/24 00:24:53;;;;;;;2.60;1.20;;;13.20;99.90;;;;;;5032240;28;20508;-77
2021/05/24 00:27:21;;;;;;;1.27;1.17;;;13.10;99.90;;;;;;5030082;28;20879;-77
2021/05/24 00:29:48;;;;;;;3.10;1.30;;;13.10;99.90;;;;;;5031996;28;20510;-79
2021/05/24 00:32:16;;;;;;;2.13;1.00;;;13.00;99.90;;;;;;5031513;28;20446;-77
2021/05/24 00:34:44;;;;;;;2.13;1.60;;;13.10;99.90;;;;;;5030863;28;20451;-78
2021/05/24 00:37:12;;;;;;;1.67;1.17;;;13.10;99.90;;;;;;5032725;28;20539;-78
2021/05/24 00:39:40;;;;;;;1.50;1.40;;;13.10;99.90;;;;;;5020740;28;20437;-78
2021/05/24 00:42:08;;;;;;;2.27;1.20;;;13.00;99.90;;;;;;5017602;28;20479;-76
2021/05/24 00:44:35;;;;;;;1.30;0.93;;;13.00;99.90;;;;;;5027744;28;20501;-77
2021/05/24 00:47:03;;;;;;;3.47;1.13;;;13.00;99.90;;;;;;5024083;28;20464;-78
2021/05/24 00:49:32;;;;;;;3.30;1.30;;;13.00;99.90;;;;;;5015024;28;20450;-77
2021/05/24 00:52:01;;;;;;;1.73;1.63;;;13.00;99.90;;;;;;5027655;28;20984;-77
2021/05/24 00:54:28;;;;;;;1.23;1.13;;;13.00;99.90;;;;;;5029832;28;20484;-76
2021/05/24 00:56:59;;;;;;;2.00;1.27;;;12.90;99.90;;;;;;5029246;28;21011;-77
2021/05/24 00:59:27;;;;;;;1.50;1.20;;;12.90;99.90;;;;;;5026725;28;20750;-78
2021/05/24 01:01:55;;;;;;;1.40;1.20;;;12.90;99.90;;;;;;5060447;28;20475;-77
2021/05/24 01:04:23;;;;;;;1.63;1.47;;;12.80;99.90;;;;;;5026520;28;20493;-78
2021/05/24 01:06:54;;;;;;;2.17;1.07;;;12.80;99.90;;;;;;5011969;28;20565;-77
2021/05/24 01:09:23;;;;;;;1.57;1.20;;;12.70;99.90;;;;;;5045093;28;20460;-78
2021/05/24 01:11:51;;;;;;;2.13;1.37;;;12.80;99.90;;;;;;5027165;28;20524;-78
2021/05/24 01:14:19;;;;;;;1.33;1.23;;;12.80;99.90;;;;;;5035974;28;20830;-77
2021/05/24 01:16:51;;;;;;;1.40;1.30;;;12.80;99.90;;;;;;5025539;28;20523;-78
2021/05/24 01:19:19;;;;;;;1.87;1.00;;;12.70;99.90;;;;;;5027493;28;20479;-78
2021/05/24 01:21:48;;;;;;;1.70;1.37;;;12.70;99.90;;;;;;5025188;28;20491;-78
2021/05/24 01:24:18;;;;;;;1.23;1.10;;;12.70;99.90;;;;;;5021750;28;20481;-76
2021/05/24 01:26:46;;;;;;;2.80;1.30;;;12.70;99.90;;;;;;5016343;28;21174;-79
2021/05/24 01:29:15;;;;;;;2.00;1.50;;;12.70;99.90;;;;;;5029106;28;20513;-79
2021/05/24 01:31:43;;;;;;;1.33;1.13;;;12.70;99.90;;;;;;5028061;28;20452;-78
2021/05/24 01:34:11;;;;;;;1.23;1.13;;;12.60;99.90;;;;;;5025508;28;20536;-78
2021/05/24 01:36:39;;;;;;;4.30;1.47;;;12.70;99.90;;;;;;5019596;28;20502;-76
2021/05/24 01:39:08;;;;;;;1.97;1.13;;;12.60;99.90;;;;;;5023375;28;20464;-79
2021/05/24 01:41:36;;;;;;;1.47;1.20;;;12.60;99.90;;;;;;5030806;28;20470;-77
2021/05/24 01:44:05;;;;;;;1.30;1.17;;;12.60;99.90;;;;;;5011005;28;20849;-78
2021/05/24 01:46:32;;;;;;;1.10;1.00;;;12.50;99.90;;;;;;5011430;28;20480;-77
2021/05/24 01:49:00;;;;;;;2.03;1.17;;;12.50;99.90;;;;;;5028636;28;20459;-79
2021/05/24 01:51:28;;;;;;;3.57;1.17;;;12.50;99.90;;;;;;5025737;28;20453;-77
2021/05/24 01:53:56;;;;;;;2.17;1.10;;;12.50;99.90;;;;;;5025187;28;20539;-77
2021/05/24 01:56:25;;;;;;;5.37;1.37;;;12.50;99.90;;;;;;5020910;28;20461;-78
2021/05/24 01:58:52;;;;;;;2.80;1.10;;;12.50;99.90;;;;;;5030398;28;20859;-77
2021/05/24 02:01:20;;;;;;;1.33;1.23;;;12.50;99.90;;;;;;5031780;28;20462;-78
2021/05/24 02:03:48;;;;;;;2.07;1.40;;;12.50;99.90;;;;;;5029239;28;20514;-78
2021/05/24 02:06:15;;;;;;;1.20;1.10;;;12.50;99.90;;;;;;5031357;28;20475;-77
2021/05/24 02:08:43;;;;;;;1.33;1.23;;;12.50;99.90;;;;;;5021215;28;20460;-79
2021/05/24 02:11:13;;;;;;;2.30;1.50;;;12.50;99.90;;;;;;5030399;28;20458;-77
2021/05/24 02:13:43;;;;;;;2.10;1.73;;;12.40;99.90;;;;;;5028774;28;21292;-77
2021/05/24 02:16:11;;;;;;;5.77;3.23;;;12.40;99.90;;;;;;5029972;28;20467;-79
2021/05/24 02:18:39;;;;;;;5.83;2.43;;;12.40;99.90;;;;;;5029205;28;20471;-79
2021/05/24 02:21:08;;;;;;;3.17;2.43;;;12.40;99.90;;;;;;5019622;28;20828;-79
2021/05/24 02:23:35;;;;;;;4.93;2.53;;;12.40;99.90;;;;;;5028749;28;21334;-78
2021/05/24 02:26:03;;;;;;;5.23;2.33;;;12.40;99.90;;;;;;5031221;28;20563;-75
2021/05/24 02:28:31;;;;;;;2.40;1.83;;;12.30;99.90;;;;;;5029293;28;20455;-78
2021/05/24 02:30:59;;;;;;;3.97;1.70;;;12.30;99.90;;;;;;5031131;28;20836;-77
2021/05/24 02:33:27;;;;;;;4.30;1.87;;;12.30;99.90;;;;;;5031654;28;20472;-80
2021/05/24 02:35:55;;;;;;;1.63;1.53;;;12.30;99.90;;;;;;5031868;28;20523;-78
2021/05/24 02:38:23;;;;;;;1.90;1.30;;;12.30;99.90;;;;;;5029893;28;20572;-77
2021/05/24 02:40:51;;;;;;;3.63;1.60;;;12.20;99.90;;;;;;5028436;28;20459;-78
2021/05/24 02:43:18;;;;;;;1.60;1.50;;;12.10;99.90;;;;;;5030361;28;21080;-78
2021/05/24 02:45:47;;;;;;;2.60;1.40;;;12.20;99.90;;;;;;5030341;28;20456;-78
2021/05/24 02:48:16;;;;;;;1.73;1.27;;;12.20;99.90;;;;;;5028370;28;20867;-79
2021/05/24 02:50:43;;;;;;;1.87;1.30;;;12.20;99.90;;;;;;5029189;28;20452;-77
2021/05/24 02:53:11;;;;;;;2.03;1.30;;;12.20;99.90;;;;;;5029194;28;20480;-77
2021/05/24 02:55:39;;;;;;;1.60;1.33;;;12.20;99.90;;;;;;5028833;28;20558;-77
2021/05/24 02:58:06;;;;;;;1.50;1.40;;;12.30;99.90;;;;;;5028093;28;20803;-77
2021/05/24 03:00:34;;;;;;;1.73;1.30;;;12.20;99.90;;;;;;5023973;28;20510;-79
2021/05/24 03:03:02;;;;;;;1.33;1.10;;;12.30;99.90;;;;;;5030191;28;20469;-79
2021/05/24 03:05:30;;;;;;;1.73;1.40;;;12.20;99.90;;;;;;5031419;28;20459;-79
2021/05/24 03:08:00;;;;;;;3.93;1.60;;;12.20;99.90;;;;;;5025893;28;20532;-79
2021/05/24 03:10:28;;;;;;;2.17;1.30;;;12.20;99.90;;;;;;5040768;28;20465;-80
2021/05/24 03:12:56;;;;;;;4.50;1.90;;;12.20;99.90;;;;;;5028739;28;20472;-76
2021/05/24 03:15:24;;;;;;;3.73;1.40;;;12.20;99.90;;;;;;5029349;28;20687;-78
2021/05/24 03:17:53;;;;;;;2.30;1.97;;;12.20;99.90;;;;;;5026994;28;20463;-76
2021/05/24 03:20:20;;;;;;;1.60;1.50;;;12.10;99.90;;;;;;5029606;28;20450;-77
2021/05/24 03:22:49;;;;;;;1.73;1.27;;;12.10;99.90;;;;;;5026455;28;20480;-77
2021/05/24 03:25:18;;;;;;;2.30;1.40;;;12.10;99.90;;;;;;5026126;28;20459;-77
2021/05/24 03:27:46;;;;;;;4.23;2.03;;;12.30;99.90;;;;;;5026178;28;20861;-78
2021/05/24 03:30:17;;;;;;;2.77;2.10;;;12.10;99.90;;;;;;5017968;28;20804;-77
2021/05/24 03:32:45;;;;;;;4.23;1.73;;;12.10;99.90;;;;;;5027801;28;21024;-76
2021/05/24 03:35:14;;;;;;;2.07;1.80;;;12.20;99.90;;;;;;5030524;28;20502;-78
2021/05/24 03:37:42;;;;;;;2.63;1.50;;;12.10;99.90;;;;;;5030701;28;21001;-80
2021/05/24 03:40:13;;;;;;;2.30;1.67;;;12.20;99.90;;;;;;5032133;28;20520;-77
2021/05/24 03:42:41;;;;;;;2.30;1.30;;;12.10;99.90;;;;;;5026191;28;20557;-78
2021/05/24 03:45:11;;;;;;;1.80;1.70;;;12.20;99.90;;;;;;5030363;28;20455;-78
2021/05/24 03:47:39;;;;;;;2.33;1.70;;;12.10;99.90;;;;;;5026176;28;20489;-78
2021/05/24 03:50:08;;;;;;;3.57;2.03;;;12.10;99.90;;;;;;5030557;28;20885;-78
2021/05/24 03:52:35;;;;;;;2.23;1.50;;;12.10;99.90;;;;;;5033645;28;20529;-75
2021/05/24 03:55:04;;;;;;;2.87;1.13;;;12.10;99.90;;;;;;5024379;28;20460;-77
2021/05/24 03:57:33;;;;;;;1.43;1.10;;;12.10;99.90;;;;;;5031936;28;20461;-77
2021/05/24 04:00:02;;;;;;;1.10;1.00;;;12.10;99.90;;;;;;5030230;28;20448;-77
2021/05/24 04:02:29;;;;;;;1.60;1.03;;;12.00;99.90;;;;;;5033100;28;20475;-78
2021/05/24 04:04:58;;;;;;;2.37;1.30;;;12.00;99.90;;;;;;5037941;28;20505;-78
2021/05/24 04:07:26;;;;;;;3.13;1.20;;;12.00;99.90;;;;;;5033341;28;20473;-76
2021/05/24 04:09:54;;;;;;;1.50;1.20;;;12.00;99.90;;;;;;5019669;28;20469;-77
2021/05/24 04:12:22;;;;;;;1.47;1.30;;;12.00;99.90;;;;;;5027460;28;20459;-77
2021/05/24 04:14:50;;;;;;;1.10;1.00;;;12.00;99.90;;;;;;5027192;28;20467;-78
2021/05/24 04:17:21;;;;;;;1.40;1.20;;;12.00;99.90;;;;;;5033257;28;20968;-77
2021/05/24 04:19:50;;;;;;;1.20;1.10;;;12.00;99.90;;;;;;5032142;28;20969;-77
2021/05/24 04:22:18;;;;;;;1.50;1.10;;;12.00;99.90;;;;;;5031680;28;20484;-76
2021/05/24 04:24:45;;;;;;;1.20;1.10;;;12.00;99.90;;;;;;5033036;28;20833;-78
2021/05/24 04:27:13;;;;;;;1.43;1.07;;;12.00;99.90;;;;;;5029879;28;20524;-77
2021/05/24 04:29:41;;;;;;;1.03;1.03;;;12.00;99.90;;;;;;5031134;28;20464;-78
2021/05/24 04:32:09;;;;;;;1.77;1.10;;;12.00;99.90;;;;;;5030926;28;20511;-78
2021/05/24 04:34:37;;;;;;;2.50;1.17;;;12.00;99.90;;;;;;5013443;28;20787;-77
2021/05/24 04:37:04;;;;;;;0.90;0.90;;;12.10;99.90;;;;;;5013809;28;20435;-77
2021/05/24 04:39:32;;;;;;;1.50;1.00;;;12.10;99.90;;;;;;5025641;28;20534;-80
2021/05/24 04:42:00;;;;;;;1.83;1.50;;;12.10;99.90;;;;;;5017048;28;20463;-79
2021/05/24 04:44:28;;;;;;;2.17;1.53;;;12.30;99.90;;;;;;5032383;28;20557;-78
2021/05/24 04:46:55;;;;;;;2.10;1.73;;;12.10;99.90;;;;;;5015338;28;20498;-79
2021/05/24 04:49:24;;;;;;;3.00;1.67;;;12.10;99.90;;;;;;5060524;28;20455;-78
2021/05/24 04:51:51;;;;;;;1.43;1.33;;;12.10;99.90;;;;;;5016883;28;20461;-78
2021/05/24 04:54:19;;;;;;;1.30;1.20;;;12.10;99.90;;;;;;5032003;28;20470;-78
2021/05/24 04:56:46;;;;;;;1.93;1.10;;;12.00;99.90;;;;;;5031074;28;20463;-78
2021/05/24 04:59:14;;;;;;;1.23;1.20;;;12.10;99.90;;;;;;5028995;28;21154;-77
2021/05/24 05:01:47;;;;;;;1.30;1.20;;;12.10;99.90;;;;;;5029790;28;20499;-78
2021/05/24 05:04:15;;;;;;;1.43;1.30;;;12.20;99.90;;;;;;5030315;28;20483;-77
2021/05/24 05:06:44;;;;;;;2.30;1.80;;;12.20;99.90;;;;;;5026703;28;20463;-76
2021/05/24 05:09:11;;;;;;;1.73;1.63;;;12.30;99.90;;;;;;5027386;28;20526;-78
2021/05/24 05:11:39;;;;;;;1.67;1.50;;;12.30;99.90;;;;;;5022383;28;20451;-75
2021/05/24 05:14:07;;;;;;;2.27;1.47;;;12.30;99.90;;;;;;5031180;28;20474;-77
2021/05/24 05:16:34;;;;;;;2.30;1.40;;;12.10;99.90;;;;;;5023469;28;20453;-76
2021/05/24 05:19:02;;;;;;;1.33;1.30;;;12.30;99.90;;;;;;5022320;28;20457;-78
2021/05/24 05:21:30;;;;;;;1.93;1.57;;;12.40;99.90;;;;;;5029655;28;20451;-77
2021/05/24 05:23:59;;;;;;;1.33;1.23;;;12.40;99.90;;;;;;5030918;28;20563;-78
2021/05/24 05:26:27;;;;;;;1.80;1.50;;;12.40;99.90;;;;;;5029515;28;20466;-78
2021/05/24 05:28:54;;;;;;;1.60;1.50;;;12.40;99.90;;;;;;5030610;28;20993;-79
2021/05/24 05:31:23;;;;;;;1.50;1.40;;;12.40;99.90;;;;;;5030375;28;20886;-79
2021/05/24 05:33:51;;;;;;;1.40;1.30;;;12.30;99.90;;;;;;5018254;28;20484;-78
2021/05/24 05:36:19;;;;;;;1.30;1.17;;;12.40;99.90;;;;;;5030445;28;20522;-78
2021/05/24 05:38:46;;;;;;;1.63;1.53;;;12.40;99.90;;;;;;5021740;28;20452;-78
2021/05/24 05:41:15;;;;;;;1.53;1.30;;;12.50;99.90;;;;;;5021142;28;20464;-79
2021/05/24 05:43:42;;;;;;;2.33;1.80;;;12.50;99.90;;;;;;5030562;28;20516;-78
2021/05/24 05:46:10;;;;;;;1.70;1.60;;;12.50;99.90;;;;;;5027490;28;20466;-76
2021/05/24 05:48:38;;;;;;;1.40;1.20;;;12.50;99.90;;;;;;5029125;28;20539;-77
2021/05/24 05:51:06;;;;;;;3.27;1.80;;;12.50;99.90;;;;;;5019868;28;20460;-79
2021/05/24 05:53:33;;;;;;;2.20;1.50;;;12.60;99.90;;;;;;5031303;28;20510;-82
2021/05/24 05:56:01;;;;;;;2.93;2.30;;;12.70;99.90;;;;;;5031730;28;20462;-80
2021/05/24 05:58:30;;;;;;;1.53;1.40;;;12.70;99.90;;;;;;5029869;28;20477;-76
2021/05/24 06:01:01;;;;;;;1.70;1.30;;;12.80;99.90;;;;;;5031158;28;20460;-81
2021/05/24 06:03:29;;;;;;;2.03;1.60;;;12.80;99.90;;;;;;5022644;28;21180;-78
2021/05/24 06:05:56;;;;;;;1.83;1.73;;;12.90;99.90;;;;;;5012305;28;20465;-78
2021/05/24 06:08:24;;;;;;;3.67;1.30;;;12.90;99.90;;;;;;5023638;28;20491;-79
2021/05/24 06:10:52;;;;;;;2.67;1.43;;;13.00;99.90;;;;;;5053200;28;20500;-78
2021/05/24 06:13:20;;;;;;;1.70;1.60;;;13.00;99.90;;;;;;5051561;28;20476;-78
2021/05/24 06:15:48;;;;;;;1.97;1.50;;;12.90;99.90;;;;;;5027867;28;20516;-77
2021/05/24 06:18:16;;;;;;;1.80;1.47;;;12.90;99.90;;;;;;5027299;28;20456;-78
2021/05/24 06:20:46;;;;;;;1.43;1.33;;;12.90;99.90;;;;;;5028379;28;20465;-77
2021/05/24 06:23:15;;;;;;;2.70;1.50;;;12.90;99.90;;;;;;5031391;28;20515;-78
2021/05/24 06:25:44;;;;;;;2.17;1.97;;;13.00;99.90;;;;;;5018127;28;20444;-78
2021/05/24 06:28:13;;;;;;;1.70;1.60;;;13.00;99.90;;;;;;5024076;28;20891;-78
2021/05/24 06:30:41;;;;;;;2.73;1.50;;;13.10;99.90;;;;;;5028525;28;21079;-80
2021/05/24 06:33:10;;;;;;;1.63;1.40;;;13.20;99.90;;;;;;5020516;28;20482;-77
2021/05/24 06:35:38;;;;;;;1.60;1.50;;;13.30;99.90;;;;;;5024324;28;20459;-77
2021/05/24 06:38:06;;;;;;;2.27;2.17;;;13.30;99.90;;;;;;5027954;28;21019;-77
2021/05/24 06:40:33;;;;;;;2.33;1.50;;;13.40;99.90;;;;;;5027079;28;20514;-79
2021/05/24 06:43:01;;;;;;;1.30;1.20;;;13.30;99.90;;;;;;5021508;28;20490;-78
2021/05/24 06:45:29;;;;;;;1.40;1.30;;;13.40;99.90;;;;;;5027714;28;20465;-79
2021/05/24 06:47:56;;;;;;;1.67;1.40;;;13.40;99.90;;;;;;5022285;28;20489;-76
2021/05/24 06:50:25;;;;;;;1.30;1.20;;;13.50;99.90;;;;;;5029201;28;20555;-78
2021/05/24 06:52:52;;;;;;;2.00;1.40;;;13.50;99.90;;;;;;5028577;28;20484;-79
2021/05/24 06:55:20;;;;;;;1.37;1.20;;;13.60;99.90;;;;;;5024584;28;20460;-77
2021/05/24 06:57:48;;;;;;;1.40;1.30;;;13.60;99.90;;;;;;5026855;28;21110;-77
2021/05/24 07:00:17;;;;;;;1.57;1.20;;;13.60;99.90;;;;;;5028048;28;20495;-77
2021/05/24 07:02:47;;;;;;;1.30;1.20;;;13.70;99.90;;;;;;5021067;28;20469;-77
2021/05/24 07:05:15;;;;;;;1.20;1.10;;;13.70;99.90;;;;;;5028324;28;21000;-76
2021/05/24 07:07:44;;;;;;;1.27;1.17;;;13.80;99.90;;;;;;5027345;28;20530;-78
2021/05/24 07:10:13;;;;;;;1.93;1.30;;;13.90;99.90;;;;;;5024082;28;20468;-77
2021/05/24 07:12:41;;;;;;;1.50;1.03;;;13.90;99.90;;;;;;5027899;28;21012;-77
2021/05/24 07:15:10;;;;;;;1.07;1.07;;;14.10;99.90;;;;;;5028676;28;20468;-78
2021/05/24 07:17:37;;;;;;;1.30;1.20;;;14.20;99.90;;;;;;5031407;28;20465;-77
2021/05/24 07:20:07;;;;;;;1.30;1.20;;;14.20;99.90;;;;;;5032025;28;21029;-78
2021/05/24 07:22:35;;;;;;;2.07;1.43;;;14.20;99.90;;;;;;5030368;28;20488;-78
2021/05/24 07:25:06;;;;;;;1.30;1.20;;;14.30;99.90;;;;;;5029754;28;20465;-77
2021/05/24 07:27:33;;;;;;;1.10;1.00;;;14.40;99.90;;;;;;5025840;28;20456;-79
2021/05/24 07:30:01;;;;;;;1.07;0.87;;;14.40;99.90;;;;;;5030135;28;20464;-77
2021/05/24 07:32:29;;;;;;;1.33;0.90;;;14.50;99.90;;;;;;5028813;28;20876;-78
2021/05/24 07:34:57;;;;;;;1.20;1.10;;;14.50;99.90;;;;;;5028039;28;20452;-77
2021/05/24 07:37:25;;;;;;;0.80;0.80;;;14.50;99.90;;;;;;5027931;28;21073;-77
2021/05/24 07:39:53;;;;;;;1.53;0.70;;;14.60;99.90;;;;;;5030386;28;21104;-78
2021/05/24 07:42:21;;;;;;;1.47;0.70;;;14.60;99.90;;;;;;5016052;28;20453;-76
2021/05/24 07:44:49;;;;;;;1.50;0.83;;;14.60;99.90;;;;;;5028678;28;20453;-75
2021/05/24 07:47:16;;;;;;;0.70;0.70;;;14.70;99.90;;;;;;5027498;28;20539;-76
2021/05/24 07:49:46;;;;;;;1.90;1.33;;;14.70;99.90;;;;;;5021160;28;20512;-78
2021/05/24 07:52:13;;;;;;;1.30;1.20;;;14.80;99.90;;;;;;5030669;28;21081;-76
2021/05/24 07:54:41;;;;;;;1.30;1.07;;;14.70;99.90;;;;;;5025703;28;20989;-78
2021/05/24 07:57:09;;;;;;;4.13;1.07;;;14.70;99.90;;;;;;5025978;28;20520;-78
2021/05/24 07:59:37;;;;;;;1.07;0.97;;;14.70;99.90;;;;;;5029452;28;20520;-76
2021/05/24 08:02:06;;;;;;;1.20;0.93;;;14.70;99.90;;;;;;5021613;28;20463;-76
2021/05/24 08:04:34;;;;;;;1.17;1.00;;;14.70;99.90;;;;;;5025441;28;20460;-81
2021/05/24 08:07:02;;;;;;;0.90;0.73;;;14.80;99.90;;;;;;5030582;28;20191;-82
2021/05/24 08:09:30;;;;;;;3.30;0.80;;;14.90;99.90;;;;;;5020829;28;20851;-78
2021/05/24 08:11:57;;;;;;;0.80;0.70;;;14.90;99.90;;;;;;5030404;28;20452;-78
2021/05/24 08:14:25;;;;;;;1.07;0.70;;;14.90;99.90;;;;;;5028893;28;20475;-79
2021/05/24 08:16:55;;;;;;;0.70;0.60;;;14.90;99.90;;;;;;5031044;28;20461;-78
2021/05/24 08:19:22;;;;;;;1.70;0.60;;;14.80;99.90;;;;;;5026597;28;20455;-80
2021/05/24 08:21:51;;;;;;;0.60;0.60;;;14.90;99.90;;;;;;5023856;28;20465;-77
2021/05/24 08:24:19;;;;;;;1.00;0.70;;;14.90;99.90;;;;;;5031715;28;20488;-80
2021/05/24 08:26:47;;;;;;;0.60;0.60;;;15.00;99.90;;;;;;5022266;28;20468;-79
2021/05/24 08:29:15;;;;;;;1.10;0.60;;;15.10;99.90;;;;;;5030810;28;20848;-79
2021/05/24 08:31:43;;;;;;;3.67;0.83;;;15.20;99.90;;;;;;5031993;28;20487;-78
2021/05/24 08:34:12;;;;;;;0.60;0.50;;;15.30;99.90;;;;;;5031682;28;20475;-79
2021/05/24 08:36:42;;;;;;;0.73;0.60;;;15.00;99.90;;;;;;5031563;28;20543;-76
2021/05/24 08:39:10;;;;;;;0.50;0.50;;;15.00;99.90;;;;;;5029018;28;20538;-79
2021/05/24 08:41:39;;;;;;;2.93;0.60;;;15.00;99.90;;;;;;5031903;28;20953;-77
2021/05/24 08:44:08;;;;;;;0.80;0.80;;;15.10;99.90;;;;;;5025570;28;20614;-77
2021/05/24 08:46:36;;;;;;;0.70;0.60;;;15.20;99.90;;;;;;5026769;28;20469;-78
2021/05/24 08:49:05;;;;;;;0.70;0.70;;;15.30;99.90;;;;;;5026756;28;20491;-78
2021/05/24 08:51:34;;;;;;;0.77;0.63;;;15.40;99.90;;;;;;5031290;28;20465;-79
2021/05/24 08:54:03;;;;;;;0.70;0.70;;;15.50;99.90;;;;;;5024229;28;20517;-78
2021/05/24 08:56:31;;;;;;;0.67;0.60;;;15.60;99.90;;;;;;5029077;28;20991;-78
2021/05/24 08:59:00;;;;;;;1.10;0.90;;;15.70;99.90;;;;;;5024233;28;20991;-78
2021/05/24 09:01:28;;;;;;;1.20;1.10;;;15.80;99.90;;;;;;5023826;28;20486;-77
2021/05/24 09:04:00;;;;;;;0.80;0.80;;;15.90;99.90;;;;;;5029557;28;20498;-78
2021/05/24 09:06:39;;;;;;;0.60;0.60;;;16.10;99.90;;;;;;5028032;28;20445;-78
2021/05/24 09:09:14;;;;;;;2.30;1.20;;;16.20;99.90;;;;;;5023667;28;20859;-80
2021/05/24 09:11:43;;;;;;;1.87;1.00;;;16.20;99.90;;;;;;5021071;28;20457;-78
2021/05/24 09:14:18;;;;;;;1.55;1.35;;;16.30;99.90;;;;;;5020510;28;20460;-79
2021/05/24 09:16:55;;;;;;;2.30;1.20;;;16.40;99.90;;;;;;5029664;28;20202;-78
2021/05/24 09:19:25;;;;;;;1.40;1.27;;;16.50;99.90;;;;;;5029095;28;21350;-81
2021/05/24 09:21:57;;;;;;;1.03;0.93;;;16.50;99.90;;;;;;5027582;28;20874;-76
2021/05/24 09:24:28;;;;;;;0.90;0.90;;;16.60;99.90;;;;;;5024242;28;20489;-77
2021/05/24 09:26:57;;;;;;;1.13;1.03;;;16.60;99.90;;;;;;5042580;28;20461;-76
2021/05/24 09:29:25;;;;;;;0.83;0.83;;;16.60;99.90;;;;;;5024430;28;20485;-80
2021/05/24 09:32:16;;;;;;;1.20;0.80;;;16.70;99.90;;;;;;5025913;28;20472;-78
2021/05/24 09:34:47;;;;;;;0.80;0.80;;;16.70;99.90;;;;;;5024183;28;21146;-78
2021/05/24 09:37:17;;;;;;;1.45;0.80;;;16.70;99.90;;;;;;5029108;28;20991;-78
2021/05/24 09:39:45;;;;;;;0.80;0.80;;;16.80;99.90;;;;;;5023622;28;20832;-79
2021/05/24 09:42:14;;;;;;;1.47;0.73;;;16.90;99.90;;;;;;5028219;28;20186;-78
2021/05/24 09:44:46;;;;;;;2.07;0.57;;;17.00;99.90;;;;;;5020737;28;20446;-78
2021/05/24 09:47:14;;;;;;;1.40;0.80;;;17.10;99.90;;;;;;5024421;28;20516;-78
2021/05/24 09:49:45;;;;;;;0.70;0.70;;;17.10;99.90;;;;;;5024601;28;20482;-77
2021/05/24 09:52:12;;;;;;;1.17;0.73;;;17.10;99.90;;;;;;5029354;28;20807;-79
2021/05/24 09:54:41;;;;;;;0.70;0.70;;;17.10;99.90;;;;;;5027132;28;20515;-75
2021/05/24 09:57:12;;;;;;;0.70;0.70;;;17.00;99.90;;;;;;5023864;28;20457;-77
2021/05/24 09:59:40;;;;;;;0.70;0.70;;;17.10;99.90;;;;;;5026763;28;21035;-75
2021/05/24 10:02:09;;;;;;;0.67;0.60;;;17.10;99.90;;;;;;5023802;28;20986;-74
2021/05/24 10:04:38;;;;;;;1.70;0.70;;;17.10;99.90;;;;;;5026604;28;21009;-76
2021/05/24 10:07:06;;;;;;;0.60;0.60;;;17.10;99.90;;;;;;5031611;28;20827;-75
2021/05/24 10:09:36;;;;;;;1.00;0.70;;;17.20;99.90;;;;;;5027805;28;21030;-75
2021/05/24 10:12:06;;;;;;;0.70;0.70;;;17.20;99.90;;;;;;5029001;28;20460;-76
2021/05/24 10:14:34;;;;;;;0.90;0.70;;;17.20;99.90;;;;;;5028298;28;20441;-76
2021/05/24 10:17:02;;;;;;;0.60;0.60;;;17.30;99.90;;;;;;5030531;28;20737;-76
2021/05/24 10:19:31;;;;;;;0.60;0.60;;;17.20;99.90;;;;;;5016298;28;20458;-75
2021/05/24 10:21:59;;;;;;;0.60;0.60;;;17.20;99.90;;;;;;5021867;28;20427;-75
2021/05/24 10:24:27;;;;;;;0.60;0.50;;;17.20;99.90;;;;;;5028735;28;20322;-75
2021/05/24 10:26:56;;;;;;;0.50;0.50;;;17.30;99.90;;;;;;5030244;28;20452;-75
2021/05/24 10:29:25;;;;;;;0.60;0.47;;;17.40;99.90;;;;;;5023448;28;20478;-79
2021/05/24 10:31:53;;;;;;;1.40;1.20;;;17.40;99.90;;;;;;5019869;28;20451;-79
2021/05/24 10:34:23;;;;;;;3.73;1.73;;;17.40;99.90;;;;;;5026968;28;20478;-78
2021/05/24 10:37:07;;;;;;;1.40;1.30;;;17.50;99.90;;;;;;5022221;28;20458;-79
2021/05/24 10:39:46;;;;;;;3.20;1.40;;;17.60;99.90;;;;;;5023254;28;20468;-78
2021/05/24 10:42:14;;;;;;;1.60;1.00;;;17.70;99.90;;;;;;5028450;28;20505;-78
2021/05/24 10:44:45;;;;;;;3.97;0.80;;;17.70;99.90;;;;;;5030186;28;20437;-78
2021/05/24 10:47:30;;;;;;;0.70;0.70;;;17.70;99.90;;;;;;5025718;28;20451;-79
2021/05/24 10:50:04;;;;;;;0.57;0.50;;;17.70;99.90;;;;;;5023874;28;20480;-79
2021/05/24 10:52:34;;;;;;;2.23;0.90;;;17.80;99.90;;;;;;5025915;28;20476;-78
2021/05/24 10:55:31;;;;;;;0.60;0.60;;;17.80;99.90;;;;;;5021097;28;20461;-78
2021/05/24 10:58:01;;;;;;;0.60;0.60;;;17.90;99.90;;;;;;5019039;28;20458;-80
2021/05/24 11:00:49;;;;;;;1.20;0.80;;;17.80;99.90;;;;;;5022366;28;20871;-80
2021/05/24 11:03:17;;;;;;;1.20;0.70;;;17.90;99.90;;;;;;5022661;28;20307;-78
2021/05/24 11:05:47;;;;;;;4.20;0.60;;;18.00;99.90;;;;;;5025339;28;20460;-79
2021/05/24 11:08:26;;;;;;;0.60;0.60;;;18.00;99.90;;;;;;5027645;28;20483;-79
2021/05/24 11:10:54;;;;;;;1.50;1.30;;;18.00;99.90;;;;;;5035658;28;20487;-78
2021/05/24 11:13:24;;;;;;;1.57;0.67;;;18.00;99.90;;;;;;5028583;28;21039;-77
2021/05/24 11:15:53;;;;;;;0.83;0.53;;;18.00;99.90;;;;;;5023668;28;20456;-79
2021/05/24 11:18:28;;;;;;;0.87;0.87;;;18.00;99.90;;;;;;5026232;28;21154;-77
2021/05/24 11:21:01;;;;;;;1.00;1.00;;;18.10;99.90;;;;;;5028009;28;20721;-79
2021/05/24 11:23:46;;;;;;;0.60;0.50;;;18.10;99.90;;;;;;5024796;28;20511;-78
2021/05/24 11:26:33;;;;;;;2.57;0.70;;;18.20;99.90;;;;;;5017406;28;20876;-77
2021/05/24 11:29:13;;;;;;;1.30;0.60;;;18.30;99.90;;;;;;5022733;28;20495;-78
2021/05/24 11:31:48;;;;;;;0.97;0.60;;;18.30;99.90;;;;;;5025431;28;20511;-79
2021/05/24 11:34:31;;;;;;;1.43;0.67;;;18.30;99.90;;;;;;5024181;28;20562;-81
2021/05/24 11:37:00;;;;;;;1.90;0.50;;;18.40;99.90;;;;;;5025901;28;20466;-80
2021/05/24 11:39:36;;;;;;;0.60;0.50;;;18.50;99.90;;;;;;5025411;28;20432;-79
2021/05/24 11:42:06;;;;;;;2.60;0.83;;;18.50;99.90;;;;;;5021536;28;20910;-79
2021/05/24 11:44:37;;;;;;;1.27;1.17;;;18.60;99.90;;;;;;5026556;28;20453;-76
2021/05/24 11:47:08;;;;;;;0.70;0.60;;;18.60;99.90;;;;;;5026109;28;20251;-75
2021/05/24 11:49:55;;;;;;;0.83;0.70;;;18.50;99.90;;;;;;5029403;28;20481;-77
2021/05/24 11:52:30;;;;;;;1.53;0.60;;;18.40;99.90;;;;;;5030568;28;20504;-76
2021/05/24 11:54:59;;;;;;;1.00;0.60;;;18.50;99.90;;;;;;5028726;28;20452;-77
2021/05/24 11:57:32;;;;;;;0.67;0.50;;;18.60;99.90;;;;;;5028352;28;21001;-78
2021/05/24 12:00:00;;;;;;;0.70;0.70;;;18.50;99.90;;;;;;5021978;28;20457;-74
2021/05/24 12:02:29;;;;;;;1.57;0.73;;;18.50;99.90;;;;;;5029323;28;20470;-76
2021/05/24 12:04:57;;;;;;;0.87;0.70;;;18.60;99.90;;;;;;5019152;28;20482;-76
2021/05/24 12:07:25;;;;;;;0.57;0.57;;;18.50;99.90;;;;;;5034849;28;20873;-75
2021/05/24 12:09:59;;;;;;;0.57;0.57;;;18.70;99.90;;;;;;5034812;28;20503;-75
2021/05/24 12:12:30;;;;;;;0.87;0.50;;;18.70;99.90;;;;;;5034301;28;20455;-74
2021/05/24 12:15:00;;;;;;;0.60;0.60;;;18.50;97.10;;;;;;5029816;28;20456;-76
2021/05/24 12:17:30;;;;;;;2.77;0.70;;;18.50;95.70;;;;;;5031416;28;20452;-75
2021/05/24 12:20:00;;;;;;;1.13;0.60;;;18.50;95.30;;;;;;5033375;28;20517;-76
2021/05/24 12:22:31;;;;;;;1.33;0.80;;;18.40;92.30;;;;;;5024098;28;20464;-76
2021/05/24 12:24:59;;;;;;;0.80;0.60;;;18.40;93.80;;;;;;5031273;28;20449;-75
2021/05/24 12:27:28;;;;;;;0.80;0.70;;;18.40;94.50;;;;;;5030822;28;20456;-76
2021/05/24 12:30:15;;;;;;;0.93;0.83;;;18.40;96.50;;;;;;5032398;28;20476;-73
2021/05/24 12:32:48;;;;;;;1.17;0.80;;;18.50;95.40;;;;;;5019283;28;21010;-75
2021/05/24 12:35:19;;;;;;;1.10;0.70;;;18.40;93.60;;;;;;5032400;28;20472;-75
2021/05/24 12:37:54;;;;;;;0.63;0.63;;;18.30;93.70;;;;;;5028540;28;20539;-76
2021/05/24 12:40:25;;;;;;;1.53;0.60;;;18.20;92.90;;;;;;5025432;28;20447;-76
2021/05/24 12:42:53;;;;;;;0.50;0.50;;;18.30;94.10;;;;;;5033407;28;20467;-76
2021/05/24 12:45:28;;;;;;;0.53;0.53;;;18.30;93.50;;;;;;5033230;28;21163;-76
2021/05/24 12:48:00;;;;;;;0.70;0.70;;;18.30;95.70;;;;;;5028935;28;20827;-74
2021/05/24 12:50:30;;;;;;;1.00;0.60;;;18.30;95.80;;;;;;5041000;28;20483;-75
2021/05/24 12:53:08;;;;;;;0.80;0.70;;;18.20;95.70;;;;;;5028466;28;20480;-76
2021/05/24 12:55:36;;;;;;;0.60;0.60;;;18.20;96.20;;;;;;5024335;28;20490;-75
2021/05/24 12:58:11;;;;;;;0.80;0.60;;;18.20;94.90;;;;;;5026524;28;20517;-75